Corpus Christi, TX (78401)

2:17 AM CDT on April 26, 2017 (GMT -0500)
Aransas Cliffs | | Change Station

Elev 22 ft 27.75 °N, 97.38 °W | Updated 21 seconds ago

Overcast
Overcast
77.5 °F
Feels Like 79 °F
N
11.1
Wind Variable Wind from SSE
Gusts 19.6 mph

Today
High -- | Low -- °F
--% Chance of Precip.
Yesterday
High -- | Low -- °F
Precip. -- in
Pressure 29.51 in
Visibility 10.0 miles
Clouds Few 1400 ft
Overcast 1800 ft
Heat Index 79 °F
Dew Point 72 °F
Humidity 82%
Rainfall 0.00 in
Snow Depth Not available.
6:53 AM 8:01 PM
Waning Crescent, 0% visible
METAR KCRP 260651Z 17020G27KT 10SM FEW014 OVC018 25/23 A2951 RMK AO2 PK WND 17027/0651 SLP992 T02500228
Pressure 29.51 in
Visibility 10.0 miles
Clouds Few 1400 ft
Overcast 1800 ft
Heat Index 79 °F
Dew Point 72 °F
Humidity 82%
Rainfall 0.00 in
Snow Depth Not available.
6:53 AM 8:01 PM
Waning Crescent, 0% visible
METAR KCRP 260651Z 17020G27KT 10SM FEW014 OVC018 25/23 A2951 RMK AO2 PK WND 17027/0651 SLP992 T02500228

Get Severe Weather Alerts

Thanks for signing up!

Be on the lookout for a verification email in your inbox.

You'll start receiving the daily forecast at 8 AM.

×

10-Day Weather Forecast

Almanac

Astronomy

Apr. 26, 2017 Rise Set
Actual Time
Civil Twilight
Nautical Twilight
Astronomical Twilight
Moon
Length of Visible Light
Length of Day
Tomorrow will be .
, % of the Moon is Illuminated

Today's Extremes

State Highs State Lows

Community

WunderPhotos

WunderBlog® & News

Nearby

Air Quality

  Air Quality AQ Index Pollutant
Not available.

Snow Depth

Station Depth Elevation

Earthquake Activity

City Distance Mag. Time & Date
Minimum magnitude displayed is 2.5.

Coastal Water Temperatures

Place Temperature

Stations

Nearby Weather Stations

Station Location Temp. Windchill Dew Point Humidity Wind Precip. Elev Updated Type
                   

Watches & Warnings

There are currently no watches in effect.